Time;durP1;ratioP1;P1;durP2;ratioP2;P2;SDS_P1;SDS_P2;PMS_P1;PMS_P2;Temp;Humidity;BMP_temperature;BMP_pressure;BME280_temperature;BME280_humidity;BME280_pressure;Samples;Min_cycle;Max_cycle;Signal;HPM_P1;HPM_P2
2022/07/10 00:02:07;;;;;;;;;;;;;;;14.74;100.00;98861.41;1699128;84;21154;-72
2022/07/10 00:04:33;;;;;;;;;;;;;;;14.73;100.00;98865.92;1698937;84;20148;-71
2022/07/10 00:07:01;;;;;;;;;;;;;;;14.70;100.00;98863.88;1699018;84;20125;-71
2022/07/10 00:09:29;;;;;;;;;;;;;;;14.68;100.00;98857.91;1699326;84;20706;-72
2022/07/10 00:11:57;;;;;;;;;;;;;;;14.66;100.00;98865.75;1699014;84;20117;-72
2022/07/10 00:14:23;;;;;;;;;;;;;;;14.64;100.00;98865.31;1699012;84;22052;-72
2022/07/10 00:16:50;;;;;;;;;;;;;;;14.64;100.00;98866.11;1699037;84;20459;-72
2022/07/10 00:19:16;;;;;;;;;;;;;;;14.62;100.00;98860.14;1699081;84;20093;-72
2022/07/10 00:21:43;;;;;;;;;;;;;;;14.60;100.00;98869.38;1699293;84;20432;-72
2022/07/10 00:24:10;;;;;;;;;;;;;;;14.59;100.00;98870.53;1699088;84;20157;-72
2022/07/10 00:26:37;;;;;;;;;;;;;;;14.59;100.00;98869.73;1699095;84;21162;-72
2022/07/10 00:29:04;;;;;;;;;;;;;;;14.59;100.00;98869.73;1699004;84;20101;-72
2022/07/10 00:31:31;;;;;;;;;;;;;;;14.59;100.00;98873.87;1698991;83;20077;-71
2022/07/10 00:33:57;;;;;;;;;;;;;;;14.59;100.00;98873.30;1699069;84;20477;-71
2022/07/10 00:36:23;;;;;;;;;;;;;;;14.61;100.00;98877.88;1699114;84;20085;-71
2022/07/10 00:38:50;;;;;;;;;;;;;;;14.62;100.00;98876.72;1698996;84;21154;-71
2022/07/10 00:41:17;;;;;;;;;;;;;;;14.64;100.00;98872.22;1699006;84;20098;-71
2022/07/10 00:43:56;;;;;;;;;;;;;;;14.65;100.00;98870.48;1699052;84;20436;-71
2022/07/10 00:46:23;;;;;;;;;;;;;;;14.67;100.00;98862.63;1699099;84;20085;-71
2022/07/10 00:48:50;;;;;;;;;;;;;;;14.69;100.00;98858.13;1699000;84;20089;-71
2022/07/10 00:51:19;;;;;;;;;;;;;;;14.70;100.00;98852.83;1699056;83;21095;-72
2022/07/10 00:53:46;;;;;;;;;;;;;;;14.72;100.00;98851.30;1679402;84;20097;-71
2022/07/10 00:56:18;;;;;;;;;;;;;;;14.72;100.00;98840.25;1699193;84;20424;-71
2022/07/10 00:58:45;;;;;;;;;;;;;;;14.73;100.00;98838.30;1699133;84;20566;-72
2022/07/10 01:01:11;;;;;;;;;;;;;;;14.73;100.00;98831.39;1699057;84;20118;-71
2022/07/10 01:03:38;;;;;;;;;;;;;;;14.73;100.00;98828.63;1699260;84;21253;-71
2022/07/10 01:06:05;;;;;;;;;;;;;;;14.71;100.00;98829.56;1698982;84;20110;-71
2022/07/10 01:08:32;;;;;;;;;;;;;;;14.70;100.00;98828.77;1698975;84;20130;-72
2022/07/10 01:10:59;;;;;;;;;;;;;;;14.68;100.00;98829.70;1699043;84;20381;-71
2022/07/10 01:13:26;;;;;;;;;;;;;;;14.68;100.00;98823.38;1698970;84;20114;-71
2022/07/10 01:15:53;;;;;;;;;;;;;;;14.68;100.00;98836.61;1698984;84;21252;-72
2022/07/10 01:18:21;;;;;;;;;;;;;;;14.67;100.00;98837.77;1698998;84;38535;-71
2022/07/10 01:20:55;;;;;;;;;;;;;;;14.66;100.00;98832.02;1699044;84;20097;-72
2022/07/10 01:23:22;;;;;;;;;;;;;;;14.66;100.00;98836.75;1699061;84;20121;-71
2022/07/10 01:25:49;;;;;;;;;;;;;;;14.65;100.00;98831.00;1679197;84;20101;-71
2022/07/10 01:28:17;;;;;;;;;;;;;;;14.65;100.00;98833.77;1698977;84;21255;-71
2022/07/10 01:30:43;;;;;;;;;;;;;;;14.64;100.00;98832.16;1698869;84;20145;-71
2022/07/10 01:33:11;;;;;;;;;;;;;;;14.71;100.00;98830.36;1699032;84;20101;-72
2022/07/10 01:35:38;;;;;;;;;;;;;;;14.81;100.00;98829.00;1699074;84;20085;-72
2022/07/10 01:38:06;;;;;;;;;;;;;;;14.79;100.00;98828.56;1699074;84;20101;-71
2022/07/10 01:40:33;;;;;;;;;;;;;;;14.74;100.00;98821.94;1699283;84;21133;-71
2022/07/10 01:43:00;;;;;;;;;;;;;;;14.71;100.00;98822.66;1698834;84;20156;-71
2022/07/10 01:45:27;;;;;;;;;;;;;;;14.65;100.00;98818.57;1698861;84;20125;-71
2022/07/10 01:47:53;;;;;;;;;;;;;;;14.59;100.00;98811.14;1698902;84;20097;-71
2022/07/10 01:50:21;;;;;;;;;;;;;;;14.54;100.00;98809.46;1699070;83;20093;-73
2022/07/10 01:52:48;;;;;;;;;;;;;;;14.50;100.00;98815.48;1721618;83;21116;-71
2022/07/10 01:55:15;;;;;;;;;;;;;;;14.46;100.00;98815.17;1728099;83;20151;-71
2022/07/10 01:57:41;;;;;;;;;;;;;;;14.42;100.00;98819.84;1728015;83;20099;-71
2022/07/10 02:00:09;;;;;;;;;;;;;;;14.39;100.00;98821.33;1728098;82;20119;-72
2022/07/10 02:02:40;;;;;;;;;;;;;;;14.39;100.00;98818.57;1728373;83;20082;-72
2022/07/10 02:05:07;;;;;;;;;;;;;;;14.38;100.00;98820.31;1721993;83;21856;-72
2022/07/10 02:07:33;;;;;;;;;;;;;;;14.36;100.00;98818.48;1721541;83;20415;-72
2022/07/10 02:10:00;;;;;;;;;;;;;;;14.34;100.00;98822.98;1728140;83;20138;-72
2022/07/10 02:12:27;;;;;;;;;;;;;;;14.34;100.00;98824.95;1728215;82;20107;-72
2022/07/10 02:14:56;;;;;;;;;;;;;;;14.31;100.00;98820.94;1728134;82;20082;-72
2022/07/10 02:17:23;;;;;;;;;;;;;;;14.30;100.00;98826.23;1728316;82;21163;-71
2022/07/10 02:19:49;;;;;;;;;;;;;;;14.29;100.00;98826.59;1728119;83;20425;-71
2022/07/10 02:22:17;;;;;;;;;;;;;;;14.25;100.00;98827.89;1727714;82;20098;-72
2022/07/10 02:24:44;;;;;;;;;;;;;;;14.21;100.00;98821.48;1727706;82;20131;-72
2022/07/10 02:27:11;;;;;;;;;;;;;;;14.17;100.00;98812.31;1726833;82;20135;-72
2022/07/10 02:29:38;;;;;;;;;;;;;;;14.14;100.00;98811.06;1727975;82;21147;-72
2022/07/10 02:32:05;;;;;;;;;;;;;;;14.13;100.00;98807.28;1744768;82;20070;-71
2022/07/10 02:34:34;;;;;;;;;;;;;;;14.10;100.00;98803.85;1755112;82;20075;-72
2022/07/10 02:37:01;;;;;;;;;;;;;;;14.08;100.00;98803.41;1755044;82;20099;-72
2022/07/10 02:39:27;;;;;;;;;;;;;;;14.06;100.00;98795.48;1755129;82;20082;-72
2022/07/10 02:41:54;;;;;;;;;;;;;;;14.05;100.00;98806.30;1754997;81;21916;-71
2022/07/10 02:44:21;;;;;;;;;;;;;;;14.11;100.00;98799.94;1754876;81;20094;-71
2022/07/10 02:46:47;;;;;;;;;;;;;;;14.23;100.00;98797.66;1755082;81;20083;-71
2022/07/10 02:49:14;;;;;;;;;;;;;;;14.31;100.00;98793.91;1754933;82;20091;-71
2022/07/10 02:51:41;;;;;;;;;;;;;;;14.43;100.00;98793.83;1755079;81;20126;-73
2022/07/10 02:54:07;;;;;;;;;;;;;;;14.50;100.00;98789.83;1755106;82;21778;-72
2022/07/10 02:56:35;;;;;;;;;;;;;;;14.49;100.00;98784.88;1755202;81;20118;-72
2022/07/10 02:59:02;;;;;;;;;;;;;;;14.52;100.00;98791.06;1755547;81;20083;-72
2022/07/10 03:01:29;;;;;;;;;;;;;;;14.50;100.00;98787.06;1755062;82;20411;-72
2022/07/10 03:03:55;;;;;;;;;;;;;;;14.54;100.00;98784.61;1755083;81;20082;-74
2022/07/10 03:06:23;;;;;;;;;;;;;;;14.63;100.00;98784.98;1755371;81;21148;-72
2022/07/10 03:08:49;;;;;;;;;;;;;;;14.70;100.00;98787.91;1754907;82;20091;-71
2022/07/10 03:11:16;;;;;;;;;;;;;;;14.71;100.00;98789.51;1755058;81;20449;-71
2022/07/10 03:13:42;;;;;;;;;;;;;;;14.68;100.00;98786.09;1754414;81;20093;-72
2022/07/10 03:16:10;;;;;;;;;;;;;;;14.64;100.00;98788.77;1755089;82;20550;-71
2022/07/10 03:18:36;;;;;;;;;;;;;;;14.65;100.00;98788.98;1755083;81;21871;-70
2022/07/10 03:21:04;;;;;;;;;;;;;;;14.69;100.00;98801.50;1755277;81;20082;-70
2022/07/10 03:23:30;;;;;;;;;;;;;;;14.75;100.00;98800.05;1755025;82;20130;-71
2022/07/10 03:25:57;;;;;;;;;;;;;;;14.80;100.00;98801.95;1755002;82;20094;-70
2022/07/10 03:28:23;;;;;;;;;;;;;;;14.91;100.00;98803.57;1755096;81;20075;-71
2022/07/10 03:30:51;;;;;;;;;;;;;;;15.02;100.00;98796.89;1755014;81;21152;-71
2022/07/10 03:33:20;;;;;;;;;;;;;;;15.11;100.00;98789.95;1730352;82;20125;-72
2022/07/10 03:35:47;;;;;;;;;;;;;;;15.18;100.00;98798.39;1728252;82;20119;-71
2022/07/10 03:38:14;;;;;;;;;;;;;;;15.23;100.00;98795.11;1728036;82;20686;-71
2022/07/10 03:40:42;;;;;;;;;;;;;;;15.26;100.00;98793.00;1728218;83;20115;-71
2022/07/10 03:43:08;;;;;;;;;;;;;;;15.29;100.00;98792.27;1728095;83;21193;-72
2022/07/10 03:45:35;;;;;;;;;;;;;;;15.29;100.00;98802.75;1727997;83;20131;-71
2022/07/10 03:48:03;;;;;;;;;;;;;;;15.31;100.00;98798.23;1728509;82;20118;-70
2022/07/10 03:50:29;;;;;;;;;;;;;;;15.37;100.00;98801.73;1728039;83;20095;-70
2022/07/10 03:52:56;;;;;;;;;;;;;;;15.47;100.00;98803.10;1728212;82;20147;-70
2022/07/10 03:55:23;;;;;;;;;;;;;;;15.51;100.00;98802.00;1728196;83;21220;-70
2022/07/10 03:57:56;;;;;;;;;;;;;;;15.57;100.00;98808.66;1728137;83;20441;-71
2022/07/10 04:00:32;;;;;;;;;;;;;;;15.62;100.00;98803.59;1728475;83;20084;-69
2022/07/10 04:02:59;;;;;;;;;;;;;;;15.70;100.00;98799.79;1728262;82;20099;-71
2022/07/10 04:05:26;;;;;;;;;;;;;;;15.80;100.00;98799.77;1728134;83;20115;-72
2022/07/10 04:07:54;;;;;;;;;;;;;;;15.79;100.00;98802.31;1728193;83;21148;-70
2022/07/10 04:10:22;;;;;;;;;;;;;;;15.75;100.00;98795.92;1728110;82;20119;-70
2022/07/10 04:12:48;;;;;;;;;;;;;;;15.71;100.00;98799.20;1728176;83;20094;-69
2022/07/10 04:15:15;;;;;;;;;;;;;;;15.70;100.00;98807.29;1728161;82;20111;-70
2022/07/10 04:17:42;;;;;;;;;;;;;;;15.72;100.00;98801.61;1728303;82;20151;-69
2022/07/10 04:20:10;;;;;;;;;;;;;;;15.74;100.00;98796.50;1728082;82;21144;-70
2022/07/10 04:22:36;;;;;;;;;;;;;;;15.75;100.00;98795.33;1727767;83;20407;-70
2022/07/10 04:25:05;;;;;;;;;;;;;;;15.78;100.00;98791.83;1728333;82;20418;-70
2022/07/10 04:27:31;;;;;;;;;;;;;;;15.84;100.00;98792.33;1728426;83;20122;-70
2022/07/10 04:29:58;;;;;;;;;;;;;;;15.89;100.00;98788.45;1728192;82;20083;-70
2022/07/10 04:32:25;;;;;;;;;;;;;;;15.96;100.00;98788.58;1727879;82;21143;-70
2022/07/10 04:34:51;;;;;;;;;;;;;;;16.02;100.00;98786.52;1727991;82;20175;-70
2022/07/10 04:37:18;;;;;;;;;;;;;;;16.13;100.00;98792.23;1728162;82;20091;-70
2022/07/10 04:39:44;;;;;;;;;;;;;;;16.23;100.00;98794.34;1728051;82;20091;-70
2022/07/10 04:42:11;;;;;;;;;;;;;;;16.34;100.00;98788.39;1728174;82;20126;-70
2022/07/10 04:44:38;;;;;;;;;;;;;;;16.45;100.00;98789.94;1728130;83;21781;-71
2022/07/10 04:47:05;;;;;;;;;;;;;;;16.54;100.00;98787.70;1728064;82;20099;-71
2022/07/10 04:49:32;;;;;;;;;;;;;;;16.60;100.00;98788.98;1728145;83;20119;-71
2022/07/10 04:51:59;;;;;;;;;;;;;;;16.67;99.39;98777.23;1728063;82;20095;-71
2022/07/10 04:54:25;;;;;;;;;;;;;;;16.73;99.32;98781.27;1728175;82;20425;-71
2022/07/10 04:56:52;;;;;;;;;;;;;;;16.79;98.74;98786.09;1728097;83;21147;-71
2022/07/10 04:59:18;;;;;;;;;;;;;;;16.87;98.54;98784.21;1728187;82;20110;-71
2022/07/10 05:01:45;;;;;;;;;;;;;;;16.92;97.63;98781.11;1728138;82;20099;-71
2022/07/10 05:04:11;;;;;;;;;;;;;;;16.99;96.17;98783.17;1727944;83;20162;-71
2022/07/10 05:06:38;;;;;;;;;;;;;;;17.02;96.65;98777.67;1731878;82;20107;-71
2022/07/10 05:09:04;;;;;;;;;;;;;;;17.06;96.63;98786.84;1728132;82;21058;-70
2022/07/10 05:11:31;;;;;;;;;;;;;;;17.12;96.38;98779.78;1728072;82;20487;-70
2022/07/10 05:13:58;;;;;;;;;;;;;;;17.20;95.15;98781.26;1728328;82;20164;-71
2022/07/10 05:16:26;;;;;;;;;;;;;;;17.22;94.93;98778.31;1728017;83;20083;-71
2022/07/10 05:18:53;;;;;;;;;;;;;;;17.28;95.48;98775.42;1728162;81;20430;-71
2022/07/10 05:21:19;;;;;;;;;;;;;;;17.38;95.34;98771.94;1728078;82;21137;-71
2022/07/10 05:23:46;;;;;;;;;;;;;;;17.48;94.08;98774.62;1727943;83;20119;-70
2022/07/10 05:26:13;;;;;;;;;;;;;;;17.54;94.13;98771.71;1728061;82;20433;-71
2022/07/10 05:28:39;;;;;;;;;;;;;;;17.58;92.66;98768.97;1728088;83;20557;-71
2022/07/10 05:31:06;;;;;;;;;;;;;;;17.61;92.72;98765.44;1728093;83;20091;-71
2022/07/10 05:33:33;;;;;;;;;;;;;;;17.66;93.11;98767.31;1729450;82;21238;-71
2022/07/10 05:36:00;;;;;;;;;;;;;;;17.73;91.63;98759.05;1754857;82;20082;-71
2022/07/10 05:38:27;;;;;;;;;;;;;;;17.80;92.79;98766.06;1754939;81;20111;-70
2022/07/10 05:40:54;;;;;;;;;;;;;;;17.88;90.59;98761.38;1745743;82;20163;-70
2022/07/10 05:43:21;;;;;;;;;;;;;;;17.90;90.70;98760.98;1729662;82;20164;-70
2022/07/10 05:45:48;;;;;;;;;;;;;;;17.97;90.65;98765.98;1725337;83;21968;-71
2022/07/10 05:48:14;;;;;;;;;;;;;;;18.05;90.07;98759.31;1725017;83;20085;-71
2022/07/10 05:50:41;;;;;;;;;;;;;;;18.12;89.59;98766.90;1725154;83;20168;-71
2022/07/10 05:53:07;;;;;;;;;;;;;;;18.20;90.31;98760.22;1725151;83;20085;-71
2022/07/10 05:55:34;;;;;;;;;;;;;;;18.32;89.65;98762.69;1725175;83;20085;-74
2022/07/10 05:58:00;;;;;;;;;;;;;;;18.43;89.32;98759.98;1725149;83;21260;-70
2022/07/10 06:00:28;;;;;;;;;;;;;;;18.54;88.56;98751.09;1725110;83;20113;-71
2022/07/10 06:02:55;;;;;;;;;;;;;;;18.66;88.42;98757.75;1725236;83;20149;-71
2022/07/10 06:05:21;;;;;;;;;;;;;;;18.82;88.25;98755.26;1725059;83;20109;-71
2022/07/10 06:07:48;;;;;;;;;;;;;;;18.97;87.04;98757.72;1725165;83;20121;-71
2022/07/10 06:10:14;;;;;;;;;;;;;;;19.13;86.73;98747.62;1724966;83;21194;-71
2022/07/10 06:12:41;;;;;;;;;;;;;;;19.27;85.17;98746.28;1725283;83;20498;-73
2022/07/10 06:15:08;;;;;;;;;;;;;;;19.38;82.67;98744.92;1742812;82;20083;-71
2022/07/10 06:17:34;;;;;;;;;;;;;;;19.48;83.52;98749.72;1725228;83;20129;-71
2022/07/10 06:20:01;;;;;;;;;;;;;;;19.62;82.70;98744.81;1725087;83;20156;-70
2022/07/10 06:22:30;;;;;;;;;;;;;;;19.73;80.76;98742.80;1723673;83;21776;-72
2022/07/10 06:25:03;;;;;;;;;;;;;;;19.87;80.17;98736.45;1724790;83;20640;-71
2022/07/10 06:27:29;;;;;;;;;;;;;;;20.02;78.67;98738.05;1725069;83;20073;-71
2022/07/10 06:29:56;;;;;;;;;;;;;;;20.18;78.76;98747.41;1725023;83;20152;-72
2022/07/10 06:32:24;;;;;;;;;;;;;;;20.32;76.83;98742.58;1724998;83;20085;-72
2022/07/10 06:34:51;;;;;;;;;;;;;;;20.40;73.51;98748.97;1724424;83;21784;-73
2022/07/10 06:37:18;;;;;;;;;;;;;;;20.37;71.85;98742.18;1722963;83;20089;-71
2022/07/10 06:39:45;;;;;;;;;;;;;;;20.38;72.29;98752.76;1724968;83;20447;-71
2022/07/10 06:42:13;;;;;;;;;;;;;;;20.39;72.26;98743.20;1725046;83;20113;-71
2022/07/10 06:44:44;;;;;;;;;;;;;;;20.44;72.44;98736.63;1725019;83;20376;-72
2022/07/10 06:50:00;;;;;;;;;;;;;;;20.64;73.00;98735.59;1724842;83;20109;-74
2022/07/10 06:52:26;;;;;;;;;;;;;;;20.77;72.71;98735.95;1725061;83;20144;-73
2022/07/10 06:54:53;;;;;;;;;;;;;;;20.93;73.44;98735.47;1724902;83;20109;-73
2022/07/10 06:57:20;;;;;;;;;;;;;;;21.10;71.60;98732.61;1725021;83;20436;-72
2022/07/10 06:59:46;;;;;;;;;;;;;;;21.20;72.04;98727.38;1724964;83;21160;-72
2022/07/10 07:02:13;;;;;;;;;;;;;;;21.29;70.61;98728.56;1724903;83;20089;-73
2022/07/10 07:04:39;;;;;;;;;;;;;;;21.40;69.42;98721.49;1725020;83;20140;-73
2022/07/10 07:07:06;;;;;;;;;;;;;;;21.47;67.54;98726.23;1725052;83;20121;-71
2022/07/10 07:09:33;;;;;;;;;;;;;;;21.50;66.50;98730.41;1724956;83;20117;-71
2022/07/10 07:11:59;;;;;;;;;;;;;;;21.52;64.81;98720.22;1725148;83;21823;-70
2022/07/10 07:14:26;;;;;;;;;;;;;;;21.51;65.56;98725.02;1724198;83;20132;-71
2022/07/10 07:17:06;;;;;;;;;;;;;;;21.62;65.89;98720.76;1724794;83;20101;-73
2022/07/10 07:24:48;;;;;;;;;;;;;;;21.88;65.06;98723.56;1695150;83;21273;-70
2022/07/10 07:27:15;;;;;;;;;;;;;;;21.84;63.14;98725.59;1724969;83;20085;-72
2022/07/10 07:29:41;;;;;;;;;;;;;;;21.84;63.39;98720.80;1726340;82;20144;-71
2022/07/10 07:32:08;;;;;;;;;;;;;;;22.01;63.55;98714.84;1724970;83;20073;-70
2022/07/10 07:34:34;;;;;;;;;;;;;;;22.18;64.09;98721.52;1751143;82;20114;-75
2022/07/10 07:37:02;;;;;;;;;;;;;;;22.38;63.97;98712.14;1745183;82;21141;-72
2022/07/10 07:39:29;;;;;;;;;;;;;;;22.57;63.86;98716.31;1724889;83;20113;-73
2022/07/10 07:41:55;;;;;;;;;;;;;;;22.81;63.32;98722.88;1724935;83;20416;-74
2022/07/10 07:44:22;;;;;;;;;;;;;;;23.00;60.70;98718.05;1724895;83;20121;-75
2022/07/10 07:46:48;;;;;;;;;;;;;;;23.07;61.02;98717.77;1725109;83;20420;-75
2022/07/10 07:49:14;;;;;;;;;;;;;;;23.08;62.57;98714.55;1725221;83;21512;-76
2022/07/10 07:51:41;;;;;;;;;;;;;;;23.09;59.41;98718.14;1739014;82;20238;-71
2022/07/10 07:54:08;;;;;;;;;;;;;;;22.96;60.20;98717.90;1755026;81;20172;-73
2022/07/10 07:56:35;;;;;;;;;;;;;;;22.98;60.19;98714.08;1746244;81;20194;-72
2022/07/10 07:59:01;;;;;;;;;;;;;;;23.17;59.56;98714.01;1724940;83;20100;-71
2022/07/10 08:01:28;;;;;;;;;;;;;;;23.28;60.06;98707.05;1726606;82;21105;-72
2022/07/10 08:03:55;;;;;;;;;;;;;;;23.32;57.87;98708.41;1740829;82;20084;-71
2022/07/10 08:06:21;;;;;;;;;;;;;;;23.41;58.67;98703.08;1724901;83;20085;-71
2022/07/10 08:08:48;;;;;;;;;;;;;;;23.56;59.04;98701.68;1725006;83;20077;-72
2022/07/10 08:11:15;;;;;;;;;;;;;;;23.73;56.88;98702.59;1724900;83;20096;-75
2022/07/10 08:13:42;;;;;;;;;;;;;;;23.70;56.40;98697.23;1724990;83;21507;-74
2022/07/10 08:16:09;;;;;;;;;;;;;;;23.52;57.22;98697.31;1724910;83;20097;-74
2022/07/10 08:18:37;;;;;;;;;;;;;;;23.45;58.52;98703.81;1724969;83;20089;-72
2022/07/10 08:21:03;;;;;;;;;;;;;;;23.44;56.97;98698.64;1725431;83;20116;-75
2022/07/10 08:23:30;;;;;;;;;;;;;;;23.35;56.57;98697.76;1724939;83;20105;-78
2022/07/10 08:25:56;;;;;;;;;;;;;;;23.33;57.71;98693.98;1724835;83;21184;-74
2022/07/10 08:28:22;;;;;;;;;;;;;;;23.37;56.54;98703.73;1725169;83;20085;-72
2022/07/10 08:30:50;;;;;;;;;;;;;;;23.37;57.56;98702.33;1724952;83;20124;-71
2022/07/10 08:33:17;;;;;;;;;;;;;;;23.36;57.10;98700.74;1725001;83;20443;-71
2022/07/10 08:35:44;;;;;;;;;;;;;;;23.25;57.41;98700.09;1717080;83;20128;-73
2022/07/10 08:38:10;;;;;;;;;;;;;;;23.12;57.02;98705.47;1712095;83;21515;-73
2022/07/10 08:40:37;;;;;;;;;;;;;;;22.94;57.12;98704.33;1698951;83;20164;-72
2022/07/10 08:43:04;;;;;;;;;;;;;;;22.78;57.74;98707.49;1699082;84;20085;-72
2022/07/10 08:45:33;;;;;;;;;;;;;;;22.68;57.57;98703.61;1698905;84;20466;-72
2022/07/10 08:48:02;;;;;;;;;;;;;;;22.57;58.26;98703.72;1699340;84;20436;-73
2022/07/10 08:50:29;;;;;;;;;;;;;;;22.51;57.77;98699.03;1698928;84;21156;-74
2022/07/10 08:53:08;;;;;;;;;;;;;;;22.59;57.98;98699.91;1698852;83;20103;-74
2022/07/10 08:55:36;;;;;;;;;;;;;;;22.87;58.00;98696.02;1698961;84;20436;-71
2022/07/10 08:58:04;;;;;;;;;;;;;;;23.40;57.64;98695.89;1698979;83;20085;-72
2022/07/10 09:00:32;;;;;;;;;;;;;;;23.70;56.88;98693.64;1699009;84;20146;-73
2022/07/10 09:02:58;;;;;;;;;;;;;;;24.07;55.16;98693.24;1698921;84;21263;-69
2022/07/10 09:05:25;;;;;;;;;;;;;;;24.44;54.56;98682.36;1699125;83;20140;-77
2022/07/10 09:07:54;;;;;;;;;;;;;;;24.98;53.61;98684.29;1698939;84;20121;-80
2022/07/10 09:10:27;;;;;;;;;;;;;;;25.55;51.80;98678.17;1698289;84;20457;-71
2022/07/10 09:12:57;;;;;;;;;;;;;;;26.04;48.55;98673.97;1698951;84;20416;-71
2022/07/10 09:15:26;;;;;;;;;;;;;;;26.41;49.51;98677.46;1698788;83;21111;-71
2022/07/10 09:18:00;;;;;;;;;;;;;;;26.88;47.68;98678.51;1698805;84;20121;-71
2022/07/10 09:20:34;;;;;;;;;;;;;;;27.12;47.00;98672.00;1699148;84;20121;-70
2022/07/10 09:23:18;;;;;;;;;;;;;;;27.05;46.47;98679.88;1699120;84;20428;-71
2022/07/10 09:25:47;;;;;;;;;;;;;;;26.68;47.43;98686.33;1698950;84;20122;-75
2022/07/10 09:28:16;;;;;;;;;;;;;;;26.15;46.22;98680.72;1698600;84;21529;-74
2022/07/10 09:30:43;;;;;;;;;;;;;;;25.77;47.54;98693.16;1698839;83;20444;-75
2022/07/10 09:33:27;;;;;;;;;;;;;;;25.42;47.13;98690.56;1698960;84;20109;-74
2022/07/10 09:36:11;;;;;;;;;;;;;;;25.01;49.29;98682.81;1698841;83;20109;-74
2022/07/10 09:38:54;;;;;;;;;;;;;;;24.75;49.41;98683.75;1699261;83;20097;-74
2022/07/10 09:41:24;;;;;;;;;;;;;;;24.58;50.22;98674.47;1699020;84;21168;-74
2022/07/10 09:44:00;;;;;;;;;;;;;;;24.52;49.50;98679.60;1698975;84;20129;-74
2022/07/10 09:46:32;;;;;;;;;;;;;;;24.43;50.83;98678.77;1698932;84;20110;-71
2022/07/10 09:49:05;;;;;;;;;;;;;;;24.30;50.41;98682.80;1699255;84;20081;-78
2022/07/10 09:51:34;;;;;;;;;;;;;;;24.13;51.52;98679.70;1698943;83;20101;-77
2022/07/10 09:54:02;;;;;;;;;;;;;;;23.93;52.39;98679.65;1699236;84;21129;-76
2022/07/10 09:56:35;;;;;;;;;;;;;;;23.80;53.18;98676.47;1698962;84;20146;-71
2022/07/10 09:59:01;;;;;;;;;;;;;;;23.73;53.89;98675.19;1698339;84;20112;-72
2022/07/10 10:01:30;;;;;;;;;;;;;;;23.73;53.81;98672.38;1698885;84;20420;-72
2022/07/10 10:04:00;;;;;;;;;;;;;;;23.71;54.10;98672.81;1698945;84;20101;-72
2022/07/10 10:06:27;;;;;;;;;;;;;;;23.74;54.27;98678.17;1698950;84;21205;-71
2022/07/10 10:09:06;;;;;;;;;;;;;;;23.78;54.79;98669.09;1698345;83;20141;-72
2022/07/10 10:11:35;;;;;;;;;;;;;;;23.69;54.87;98665.44;1697047;84;20081;-72
2022/07/10 10:14:02;;;;;;;;;;;;;;;23.56;54.85;98663.86;1698531;84;20077;-74
2022/07/10 10:16:29;;;;;;;;;;;;;;;23.55;54.03;98658.08;1698927;83;20208;-75
2022/07/10 10:21:43;;;;;;;;;;;;;;;23.57;54.41;98662.65;1698871;84;20097;-72
2022/07/10 10:24:11;;;;;;;;;;;;;;;23.69;54.62;98661.23;1698977;84;20145;-71
2022/07/10 10:26:40;;;;;;;;;;;;;;;23.82;53.89;98666.42;1698756;84;20753;-69
2022/07/10 10:29:06;;;;;;;;;;;;;;;23.89;52.25;98660.70;1698772;84;20089;-70
2022/07/10 10:31:33;;;;;;;;;;;;;;;23.92;52.77;98655.64;1699089;84;21690;-69
2022/07/10 10:34:00;;;;;;;;;;;;;;;23.95;52.39;98654.00;1698987;83;20085;-72
2022/07/10 10:36:41;;;;;;;;;;;;;;;23.99;53.29;98654.73;1714282;83;20121;-76
2022/07/10 10:39:16;;;;;;;;;;;;;;;24.14;54.01;98656.67;1724932;83;20097;-79
2022/07/10 10:41:53;;;;;;;;;;;;;;;24.39;52.46;98659.81;1725028;83;20460;-75
2022/07/10 10:44:21;;;;;;;;;;;;;;;24.56;52.52;98655.87;1725081;83;21992;-71
2022/07/10 10:46:56;;;;;;;;;;;;;;;24.81;51.61;98658.78;1724904;83;20121;-70
2022/07/10 10:49:24;;;;;;;;;;;;;;;24.95;50.92;98658.45;1724870;83;20077;-75
2022/07/10 10:52:07;;;;;;;;;;;;;;;25.07;50.55;98645.19;1724461;83;20409;-69
2022/07/10 10:54:57;;;;;;;;;;;;;;;25.23;50.28;98649.44;1724316;83;20117;-72
2022/07/10 10:57:36;;;;;;;;;;;;;;;25.44;50.83;98644.53;1725142;83;21721;-73
2022/07/10 11:00:07;;;;;;;;;;;;;;;25.56;50.05;98639.63;1702797;83;20097;-71
2022/07/10 11:02:39;;;;;;;;;;;;;;;25.52;48.43;98638.91;1724981;83;20428;-70
2022/07/10 11:05:18;;;;;;;;;;;;;;;25.44;48.78;98631.27;1724952;83;20117;-68
2022/07/10 11:07:53;;;;;;;;;;;;;;;25.34;48.06;98632.34;1725296;83;20181;-69
2022/07/10 11:10:30;;;;;;;;;;;;;;;25.53;49.23;98626.45;1725033;83;21279;-72
2022/07/10 11:13:13;;;;;;;;;;;;;;;25.86;47.09;98627.27;1725251;83;20096;-69
2022/07/10 11:15:48;;;;;;;;;;;;;;;25.99;47.90;98623.30;1725163;83;20073;-69
2022/07/10 11:18:18;;;;;;;;;;;;;;;26.15;47.59;98631.50;1725322;83;20436;-69
2022/07/10 11:20:49;;;;;;;;;;;;;;;26.39;46.81;98623.03;1724962;83;20165;-69
2022/07/10 11:23:27;;;;;;;;;;;;;;;26.46;46.19;98617.21;1725229;83;21931;-71
2022/07/10 11:26:01;;;;;;;;;;;;;;;26.45;46.51;98624.69;1723885;83;20120;-74
2022/07/10 11:28:48;;;;;;;;;;;;;;;26.42;46.37;98617.92;1701491;83;20085;-75
2022/07/10 11:31:14;;;;;;;;;;;;;;;26.55;47.71;98616.56;1724974;83;20366;-74
2022/07/10 11:33:44;;;;;;;;;;;;;;;26.50;46.53;98622.73;1725221;83;20121;-75
2022/07/10 11:36:32;;;;;;;;;;;;;;;26.40;46.73;98620.39;1715984;83;21097;-77
2022/07/10 11:39:04;;;;;;;;;;;;;;;26.35;45.64;98618.12;1698926;84;20085;-75
2022/07/10 11:41:32;;;;;;;;;;;;;;;26.25;45.29;98627.61;1702489;83;20143;-75
2022/07/10 11:44:01;;;;;;;;;;;;;;;26.11;45.71;98619.56;1712469;83;20152;-77
2022/07/10 11:46:34;;;;;;;;;;;;;;;25.90;46.49;98620.32;1699010;84;20472;-72
2022/07/10 11:49:05;;;;;;;;;;;;;;;25.88;47.99;98619.97;1699307;84;21168;-73
2022/07/10 11:51:33;;;;;;;;;;;;;;;25.84;46.05;98620.67;1699079;84;20464;-75
2022/07/10 11:54:05;;;;;;;;;;;;;;;25.79;46.67;98623.23;1699207;84;20097;-76
2022/07/10 11:56:36;;;;;;;;;;;;;;;25.78;46.38;98610.41;1698346;84;20117;-72
2022/07/10 11:59:04;;;;;;;;;;;;;;;25.69;47.85;98615.86;1699248;83;20089;-71
2022/07/10 12:01:35;;;;;;;;;;;;;;;25.74;46.58;98615.33;1698990;84;21262;-71
2022/07/10 12:04:03;;;;;;;;;;;;;;;25.88;46.02;98607.94;1698921;84;20112;-71
2022/07/10 12:06:31;;;;;;;;;;;;;;;26.03;45.99;98604.89;1699198;84;20169;-72
2022/07/10 12:09:07;;;;;;;;;;;;;;;26.49;46.85;98608.49;1699002;84;20136;-71
2022/07/10 12:11:34;;;;;;;;;;;;;;;27.03;44.22;98602.87;1697979;84;20118;-74
2022/07/10 12:14:15;;;;;;;;;;;;;;;27.33;43.79;98605.73;1698103;83;21154;-76
2022/07/10 12:16:44;;;;;;;;;;;;;;;27.48;43.94;98604.03;1698134;84;20136;-76
2022/07/10 12:19:15;;;;;;;;;;;;;;;27.94;42.26;98603.89;1698428;84;20192;-73
2022/07/10 12:21:43;;;;;;;;;;;;;;;28.42;42.06;98602.42;1697959;84;20142;-71
2022/07/10 12:24:10;;;;;;;;;;;;;;;28.82;41.38;98608.22;1697993;84;20085;-74
2022/07/10 12:26:39;;;;;;;;;;;;;;;28.98;39.28;98608.59;1698107;84;21126;-73
2022/07/10 12:29:05;;;;;;;;;;;;;;;28.62;38.28;98607.12;1698229;84;20121;-73
2022/07/10 12:31:34;;;;;;;;;;;;;;;27.89;38.94;98601.65;1697699;83;20471;-73
2022/07/10 12:34:03;;;;;;;;;;;;;;;27.32;41.30;98606.97;1698892;84;20114;-73
2022/07/10 12:36:44;;;;;;;;;;;;;;;26.99;41.78;98612.05;1679087;84;20110;-72
2022/07/10 12:39:11;;;;;;;;;;;;;;;26.55;42.34;98610.94;1698953;83;21861;-72
2022/07/10 12:42:02;;;;;;;;;;;;;;;26.12;43.44;98615.52;1698895;84;20081;-72
2022/07/10 12:44:42;;;;;;;;;;;;;;;25.84;44.97;98605.83;1698978;84;20085;-75
2022/07/10 12:47:11;;;;;;;;;;;;;;;25.62;45.09;98611.96;1698638;84;20148;-72
2022/07/10 12:49:55;;;;;;;;;;;;;;;25.34;44.94;98615.48;1698529;84;20169;-71
2022/07/10 12:52:33;;;;;;;;;;;;;;;25.04;45.49;98620.00;1692443;83;21215;-75
2022/07/10 12:55:15;;;;;;;;;;;;;;;24.64;46.45;98618.02;1699306;84;20194;-71
2022/07/10 12:57:47;;;;;;;;;;;;;;;24.32;46.78;98621.47;1699030;84;20464;-71
2022/07/10 13:00:15;;;;;;;;;;;;;;;24.09;47.18;98617.91;1698946;84;20444;-70
2022/07/10 13:02:42;;;;;;;;;;;;;;;23.88;47.94;98616.28;1698902;84;20120;-71